Terminal Aerodrome Forecast
Issued by NWS

Home | Current Version | Previous Version | Graphics & Text | Print | Product List | Glossary On
Versions: 1 2 3 4 5 6 7 8 9 10 11 12 13 14 15 16 17 18 19 20 21 22
000
FTUS43 KMPX 231700 RRA
TAFAXN
TAF
KAXN 231741Z 2318/2418 28008KT P6SM BKN100
     FM232300 31013KT P6SM BKN025 OVC090
     FM240200 31015G25KT 6SM -SHSN BKN015
     FM240800 32022G30KT P6SM OVC015=

USA.gov is the U.S. government's official web portal to all federal, state and local government web resources and services.